createdAt,value
2023-05-24T00:00:41.096Z,13.60
2023-05-24T00:03:09.007Z,13.40
2023-05-24T00:05:37.801Z,13.30
2023-05-24T00:08:05.517Z,13.20
2023-05-24T00:10:32.650Z,13.10
2023-05-24T00:13:01.458Z,13.10
2023-05-24T00:15:28.475Z,13.20
2023-05-24T00:17:55.991Z,13.10
2023-05-24T00:20:26.417Z,13.10
2023-05-24T00:22:53.909Z,13.00
2023-05-24T00:25:21.350Z,13.00
2023-05-24T00:27:48.373Z,12.70
2023-05-24T00:30:17.155Z,12.70
2023-05-24T00:32:44.695Z,12.80
2023-05-24T00:35:16.783Z,12.60
2023-05-24T00:37:45.617Z,12.70
2023-05-24T00:40:18.921Z,12.80
2023-05-24T00:42:46.418Z,12.80
2023-05-24T00:45:13.592Z,12.70
2023-05-24T00:47:45.513Z,12.50
2023-05-24T00:50:14.431Z,12.50
2023-05-24T00:52:43.052Z,12.50
2023-05-24T00:55:11.175Z,12.40
2023-05-24T00:57:38.798Z,12.50
2023-05-24T01:00:08.421Z,12.30
2023-05-24T01:02:38.954Z,12.10
2023-05-24T01:05:18.842Z,12.00
2023-05-24T01:08:02.133Z,12.10
2023-05-24T01:10:41.451Z,12.20
2023-05-24T01:13:23.603Z,12.40
2023-05-24T01:16:00.247Z,12.50
2023-05-24T01:18:33.088Z,12.30
2023-05-24T01:21:16.208Z,12.30
2023-05-24T01:24:00.967Z,12.30
2023-05-24T01:26:39.459Z,12.30
2023-05-24T01:29:08.490Z,12.30
2023-05-24T01:31:37.200Z,12.30
2023-05-24T01:34:04.755Z,12.30
2023-05-24T01:36:31.875Z,12.40
2023-05-24T01:38:59.176Z,12.50
2023-05-24T01:41:38.552Z,12.60
2023-05-24T01:44:16.576Z,12.60
2023-05-24T01:46:50.390Z,12.60
2023-05-24T01:49:26.887Z,12.60
2023-05-24T01:52:00.271Z,12.60
2023-05-24T01:54:32.316Z,12.60
2023-05-24T01:57:01.173Z,12.60
2023-05-24T02:02:17.559Z,12.50
2023-05-24T02:04:51.316Z,12.40
2023-05-24T02:07:19.288Z,12.40
2023-05-24T02:09:46.392Z,12.40
2023-05-24T02:12:14.120Z,12.30
2023-05-24T02:14:42.779Z,12.30
2023-05-24T02:17:10.490Z,12.20
2023-05-24T02:19:37.528Z,12.20
2023-05-24T02:22:05.400Z,12.30
2023-05-24T02:24:32.419Z,12.30
2023-05-24T02:27:00.101Z,12.20
2023-05-24T02:29:30.132Z,12.00
2023-05-24T02:31:58.540Z,12.00
2023-05-24T02:34:26.218Z,11.90
2023-05-24T02:36:56.601Z,12.10
2023-05-24T02:39:23.723Z,12.10
2023-05-24T02:41:51.241Z,12.10
2023-05-24T02:44:18.748Z,11.90
2023-05-24T02:46:46.064Z,11.90
2023-05-24T02:49:15.119Z,11.90
2023-05-24T02:51:42.630Z,11.70
2023-05-24T02:54:09.660Z,11.70
2023-05-24T02:56:37.891Z,11.80
2023-05-24T02:59:05.242Z,11.80
2023-05-24T03:01:34.857Z,11.80
2023-05-24T03:04:02.772Z,11.70
2023-05-24T03:06:31.240Z,11.70
2023-05-24T03:08:59.725Z,11.80
2023-05-24T03:11:27.479Z,11.80
2023-05-24T03:13:55.113Z,11.80
2023-05-24T03:16:22.775Z,11.80
2023-05-24T03:18:55.266Z,12.00
2023-05-24T03:21:26.295Z,11.90
2023-05-24T03:23:54.824Z,11.90
2023-05-24T03:26:22.425Z,11.90
2023-05-24T03:28:51.160Z,11.90
2023-05-24T03:31:20.705Z,11.80
2023-05-24T03:33:47.843Z,11.80
2023-05-24T03:36:15.940Z,11.80
2023-05-24T03:38:42.960Z,11.80
2023-05-24T03:41:11.767Z,11.70
2023-05-24T03:43:39.378Z,11.70
2023-05-24T03:46:09.915Z,11.50
2023-05-24T03:48:36.982Z,11.50
2023-05-24T03:51:04.397Z,11.60
2023-05-24T03:53:32.703Z,11.50
2023-05-24T03:56:02.568Z,11.50
2023-05-24T03:58:31.354Z,11.50
2023-05-24T04:00:58.670Z,11.60
2023-05-24T04:03:26.334Z,11.60
2023-05-24T04:05:54.294Z,11.60
2023-05-24T04:11:06.606Z,11.60
2023-05-24T04:13:35.427Z,11.70
2023-05-24T04:16:02.689Z,11.70
2023-05-24T04:18:30.085Z,11.50
2023-05-24T04:20:57.929Z,11.50
2023-05-24T04:23:25.207Z,11.50
2023-05-24T04:25:52.925Z,11.40
2023-05-24T04:28:22.182Z,11.30
2023-05-24T04:30:52.360Z,11.30
2023-05-24T04:33:20.447Z,11.40
2023-05-24T04:35:48.359Z,11.40
2023-05-24T04:38:15.966Z,11.30
2023-05-24T04:40:44.049Z,11.30
2023-05-24T04:43:12.431Z,11.30
2023-05-24T04:48:25.402Z,11.10
2023-05-24T04:50:56.445Z,11.20
2023-05-24T04:53:24.477Z,11.10
2023-05-24T04:55:53.049Z,11.10
2023-05-24T04:58:20.791Z,11.00
2023-05-24T05:00:51.513Z,11.10
2023-05-24T05:03:21.665Z,11.00
2023-05-24T05:05:50.132Z,11.00
2023-05-24T05:08:17.693Z,11.00
2023-05-24T05:10:45.340Z,11.10
2023-05-24T05:13:12.846Z,11.20
2023-05-24T05:15:41.610Z,11.20
2023-05-24T05:18:10.476Z,11.10
2023-05-24T05:20:38.162Z,11.20
2023-05-24T05:23:06.716Z,11.10
2023-05-24T05:25:34.255Z,11.10
2023-05-24T05:28:01.905Z,11.10
2023-05-24T05:30:33.768Z,11.10
2023-05-24T05:33:01.495Z,11.10
2023-05-24T05:35:29.297Z,11.00
2023-05-24T05:37:56.259Z,11.00
2023-05-24T05:40:25.076Z,11.00
2023-05-24T05:45:36.807Z,11.10
2023-05-24T05:48:04.064Z,11.30
2023-05-24T05:53:16.798Z,11.40
2023-05-24T05:55:45.307Z,11.50
2023-05-24T05:58:12.312Z,11.60
2023-05-24T06:00:41.265Z,11.70
2023-05-24T06:03:08.554Z,11.70
2023-05-24T06:05:36.057Z,11.90
2023-05-24T06:08:03.168Z,11.90
2023-05-24T06:10:30.634Z,11.90
2023-05-24T06:12:59.041Z,11.90
2023-05-24T06:15:26.875Z,11.90
2023-05-24T06:17:55.285Z,12.20
2023-05-24T06:20:23.402Z,12.50
2023-05-24T06:22:51.211Z,12.80
2023-05-24T06:25:20.815Z,13.10
2023-05-24T06:27:48.351Z,13.40
2023-05-24T06:30:17.145Z,13.50
2023-05-24T06:32:44.589Z,13.60
2023-05-24T06:35:11.792Z,13.70
2023-05-24T06:37:38.862Z,13.50
2023-05-24T06:40:09.925Z,13.60
2023-05-24T06:42:37.262Z,13.70
2023-05-24T06:45:05.119Z,14.00
2023-05-24T06:47:33.651Z,14.10
2023-05-24T06:50:02.659Z,14.50
2023-05-24T06:52:29.648Z,14.30
2023-05-24T06:54:56.773Z,14.50
2023-05-24T06:57:24.473Z,14.90
2023-05-24T06:59:52.468Z,14.80
2023-05-24T07:02:24.058Z,15.00
2023-05-24T07:04:53.219Z,15.30
2023-05-24T07:07:20.719Z,16.00
2023-05-24T07:09:48.298Z,16.50
2023-05-24T07:12:15.481Z,17.20
2023-05-24T07:14:42.731Z,17.60
2023-05-24T07:17:09.975Z,18.10
2023-05-24T07:19:37.112Z,18.60
2023-05-24T07:22:05.648Z,18.70
2023-05-24T07:24:33.160Z,18.60
2023-05-24T07:27:00.167Z,18.80
2023-05-24T07:29:27.571Z,18.60
2023-05-24T07:31:56.347Z,18.10
2023-05-24T07:34:24.325Z,17.50
2023-05-24T07:36:51.880Z,17.20
2023-05-24T07:39:20.276Z,17.20
2023-05-24T07:41:47.382Z,17.00
2023-05-24T07:44:14.959Z,17.00
2023-05-24T07:46:42.089Z,17.10
2023-05-24T07:49:09.226Z,17.00
2023-05-24T07:51:36.903Z,16.80
2023-05-24T07:54:04.204Z,16.90
2023-05-24T07:56:32.838Z,16.70
2023-05-24T07:59:05.071Z,16.70
2023-05-24T08:01:32.394Z,16.40
2023-05-24T08:03:59.525Z,16.30
2023-05-24T08:06:27.422Z,15.90
2023-05-24T08:08:55.176Z,15.20
2023-05-24T08:11:22.291Z,15.00
2023-05-24T08:13:50.942Z,14.70
2023-05-24T08:16:18.924Z,14.60
2023-05-24T08:18:46.014Z,14.60
2023-05-24T08:21:13.504Z,14.30
2023-05-24T08:23:41.547Z,13.90
2023-05-24T08:26:08.956Z,14.00
2023-05-24T08:28:36.519Z,13.90
2023-05-24T08:31:05.055Z,14.00
2023-05-24T08:33:32.764Z,13.90
2023-05-24T08:36:00.241Z,13.90
2023-05-24T08:38:28.766Z,13.60
2023-05-24T08:40:56.043Z,13.80
2023-05-24T08:43:24.061Z,13.90
2023-05-24T08:45:53.321Z,14.00
2023-05-24T08:48:22.842Z,13.70
2023-05-24T08:50:58.671Z,13.60
2023-05-24T08:53:27.315Z,13.60
2023-05-24T08:55:56.474Z,13.80
2023-05-24T08:58:23.640Z,13.70
2023-05-24T09:00:50.651Z,13.70
2023-05-24T09:03:18.660Z,13.70
2023-05-24T09:05:47.380Z,13.60
2023-05-24T09:08:18.066Z,13.80
2023-05-24T09:13:20.240Z,14.20
2023-05-24T09:15:47.369Z,14.40
2023-05-24T09:18:14.644Z,14.60
2023-05-24T09:20:42.199Z,14.90
2023-05-24T09:23:12.713Z,14.80
2023-05-24T09:25:44.210Z,15.00
2023-05-24T09:28:14.674Z,14.80
2023-05-24T09:30:44.771Z,14.70
2023-05-24T09:33:13.130Z,14.60
2023-05-24T09:35:43.259Z,14.80
2023-05-24T09:38:19.331Z,14.80
2023-05-24T09:40:47.229Z,14.80
2023-05-24T09:43:14.261Z,14.60
2023-05-24T09:45:47.221Z,14.80
2023-05-24T09:48:18.925Z,14.70
2023-05-24T09:50:58.596Z,14.70
2023-05-24T09:53:27.490Z,14.80
2023-05-24T09:55:55.536Z,14.80
2023-05-24T09:58:23.019Z,14.90
2023-05-24T10:00:50.494Z,14.90
2023-05-24T10:03:17.781Z,14.90
2023-05-24T10:05:46.888Z,14.80
2023-05-24T10:08:14.528Z,14.80
2023-05-24T10:10:44.253Z,14.70
2023-05-24T10:13:12.882Z,15.00
2023-05-24T10:15:39.942Z,15.20
2023-05-24T10:18:10.582Z,15.20
2023-05-24T10:20:38.932Z,15.00
2023-05-24T10:23:09.906Z,15.10
2023-05-24T10:25:48.504Z,15.10
2023-05-24T10:28:16.904Z,15.30
2023-05-24T10:30:55.188Z,15.40
2023-05-24T10:33:24.084Z,15.30
2023-05-24T10:35:53.210Z,15.00
2023-05-24T10:38:22.743Z,15.00
2023-05-24T10:40:51.486Z,15.10
2023-05-24T10:43:18.999Z,15.30
2023-05-24T10:45:50.000Z,15.50
2023-05-24T10:48:37.185Z,15.80
2023-05-24T10:51:35.014Z,15.70
2023-05-24T10:54:14.596Z,15.60
2023-05-24T10:56:48.748Z,15.60
2023-05-24T10:59:37.899Z,15.50
2023-05-24T11:02:10.232Z,15.50
2023-05-24T11:04:40.089Z,15.70
2023-05-24T11:09:59.777Z,15.80
2023-05-24T11:12:38.395Z,15.70
2023-05-24T11:15:10.039Z,15.70
2023-05-24T11:18:17.269Z,15.70
2023-05-24T11:20:47.463Z,15.70
2023-05-24T11:23:16.616Z,15.80
2023-05-24T11:25:43.761Z,15.70
2023-05-24T11:28:12.722Z,15.90
2023-05-24T11:30:41.033Z,16.00
2023-05-24T11:33:17.355Z,16.10
2023-05-24T11:35:45.304Z,16.20
2023-05-24T11:38:16.127Z,16.20
2023-05-24T11:40:45.823Z,16.30
2023-05-24T11:43:16.657Z,16.30
2023-05-24T11:45:46.240Z,16.20
2023-05-24T11:48:13.948Z,16.00
2023-05-24T11:50:49.240Z,16.00
2023-05-24T11:53:21.550Z,16.10
2023-05-24T11:55:48.996Z,16.20
2023-05-24T11:58:25.469Z,16.20
2023-05-24T12:03:38.823Z,15.80
2023-05-24T12:06:07.595Z,15.80
2023-05-24T12:08:34.691Z,15.80
2023-05-24T12:11:03.499Z,15.80
2023-05-24T12:13:31.300Z,15.80
2023-05-24T12:15:58.445Z,15.90
2023-05-24T12:18:27.205Z,16.10
2023-05-24T12:20:54.586Z,16.10
2023-05-24T12:23:28.024Z,16.20
2023-05-24T12:25:59.935Z,16.10
2023-05-24T12:28:27.958Z,16.20
2023-05-24T12:30:55.681Z,16.20
2023-05-24T12:33:24.396Z,16.20
2023-05-24T12:35:53.835Z,16.30
2023-05-24T12:38:25.553Z,16.30
2023-05-24T12:41:08.265Z,16.10
2023-05-24T12:43:41.044Z,16.00
2023-05-24T12:46:08.366Z,15.80
2023-05-24T12:48:35.620Z,15.80
2023-05-24T12:51:03.046Z,15.70
2023-05-24T12:53:31.404Z,15.60
2023-05-24T12:56:00.431Z,15.60
2023-05-24T12:58:27.960Z,15.60
2023-05-24T13:00:55.004Z,15.70
2023-05-24T13:03:22.754Z,15.60
2023-05-24T13:05:49.973Z,15.80
2023-05-24T13:08:17.844Z,15.80
2023-05-24T13:10:46.489Z,15.70
2023-05-24T13:13:13.606Z,15.70
2023-05-24T13:15:41.892Z,15.70
2023-05-24T13:18:09.361Z,15.60
2023-05-24T13:20:37.001Z,15.50
2023-05-24T13:23:04.223Z,15.60
2023-05-24T13:25:31.377Z,15.50
2023-05-24T13:28:00.479Z,15.50
2023-05-24T13:30:28.227Z,15.60
2023-05-24T13:32:56.088Z,15.60
2023-05-24T13:35:23.220Z,15.50
2023-05-24T13:37:51.141Z,15.50
2023-05-24T13:40:18.440Z,15.50
2023-05-24T13:42:45.738Z,15.60
2023-05-24T13:45:14.066Z,15.60
2023-05-24T13:47:41.539Z,15.70
2023-05-24T13:50:11.349Z,15.60
2023-05-24T13:52:38.550Z,15.50
2023-05-24T13:55:07.685Z,15.40
2023-05-24T13:57:50.335Z,15.30
2023-05-24T14:00:21.526Z,15.40
2023-05-24T14:02:49.416Z,15.30
2023-05-24T14:07:47.408Z,15.30
2023-05-24T14:10:15.141Z,15.30
2023-05-24T14:12:42.550Z,15.50
2023-05-24T14:15:11.260Z,15.50
2023-05-24T14:17:39.612Z,15.40
2023-05-24T14:20:08.234Z,15.40
2023-05-24T14:22:35.350Z,15.40
2023-05-24T14:25:02.399Z,15.40
2023-05-24T14:27:29.922Z,15.50
2023-05-24T14:29:56.972Z,15.60
2023-05-24T14:32:24.001Z,15.60
2023-05-24T14:34:54.640Z,15.50
2023-05-24T14:37:22.667Z,15.70
2023-05-24T14:39:49.780Z,15.70
2023-05-24T14:45:01.586Z,15.90
2023-05-24T14:47:28.641Z,16.10
2023-05-24T14:49:57.214Z,16.00
2023-05-24T14:52:24.300Z,16.00
2023-05-24T14:54:51.646Z,16.10
2023-05-24T14:57:19.054Z,16.10
2023-05-24T14:59:46.291Z,16.20
2023-05-24T15:02:13.326Z,16.10
2023-05-24T15:04:40.351Z,16.00
2023-05-24T15:07:09.654Z,16.00
2023-05-24T15:09:36.659Z,16.10
2023-05-24T15:12:05.614Z,16.10
2023-05-24T15:14:32.718Z,16.10
2023-05-24T15:17:00.362Z,16.10
2023-05-24T15:19:28.123Z,16.10
2023-05-24T15:21:55.361Z,16.20
2023-05-24T15:24:23.732Z,16.20
2023-05-24T15:26:51.420Z,16.20
2023-05-24T15:29:19.020Z,16.10
2023-05-24T15:31:46.183Z,15.90
2023-05-24T15:34:13.292Z,15.80
2023-05-24T15:36:41.397Z,15.70
2023-05-24T15:39:08.960Z,15.80
2023-05-24T15:41:38.640Z,15.80
2023-05-24T15:44:08.824Z,15.90
2023-05-24T15:46:36.553Z,15.80
2023-05-24T15:49:03.804Z,15.90
2023-05-24T15:54:00.941Z,15.90
2023-05-24T15:59:14.677Z,15.90
2023-05-24T16:01:42.473Z,15.80
2023-05-24T16:04:10.144Z,15.70
2023-05-24T16:06:37.884Z,15.70
2023-05-24T16:09:06.948Z,15.70
2023-05-24T16:11:34.236Z,15.60
2023-05-24T16:14:01.822Z,15.70
2023-05-24T16:16:30.235Z,15.70
2023-05-24T16:18:57.273Z,15.60
2023-05-24T16:21:24.494Z,15.80
2023-05-24T16:23:52.134Z,15.80
2023-05-24T16:26:19.105Z,16.00
2023-05-24T16:28:46.648Z,16.00
2023-05-24T16:31:15.971Z,15.90
2023-05-24T16:33:45.103Z,15.80
2023-05-24T16:36:12.585Z,15.80
2023-05-24T16:38:39.750Z,15.80
2023-05-24T16:41:06.854Z,15.80
2023-05-24T16:43:34.081Z,15.90
2023-05-24T16:46:01.774Z,15.90
2023-05-24T16:48:29.668Z,15.90
2023-05-24T16:50:58.512Z,16.00
2023-05-24T16:53:26.931Z,15.90
2023-05-24T16:55:55.684Z,15.90
2023-05-24T16:58:24.738Z,16.00
2023-05-24T17:03:38.662Z,16.00
2023-05-24T17:06:07.564Z,16.00
2023-05-24T17:08:36.456Z,16.10
2023-05-24T17:11:03.764Z,16.10
2023-05-24T17:13:31.488Z,16.10
2023-05-24T17:16:00.146Z,16.00
2023-05-24T17:18:27.889Z,16.00
2023-05-24T17:20:55.991Z,15.90
2023-05-24T17:23:25.382Z,16.00
2023-05-24T17:25:52.554Z,15.90
2023-05-24T17:28:19.632Z,16.00
2023-05-24T17:30:47.800Z,16.00
2023-05-24T17:33:14.836Z,16.00
2023-05-24T17:35:43.262Z,16.00
2023-05-24T17:38:10.570Z,16.00
2023-05-24T17:40:38.911Z,16.00
2023-05-24T17:43:06.302Z,16.00
2023-05-24T17:45:33.977Z,16.00
2023-05-24T17:48:01.547Z,16.00
2023-05-24T17:50:28.638Z,16.00
2023-05-24T17:52:56.094Z,16.00
2023-05-24T17:55:23.169Z,15.90
2023-05-24T17:57:51.898Z,15.80
2023-05-24T18:00:20.989Z,15.90
2023-05-24T18:02:48.078Z,15.80
2023-05-24T18:05:16.946Z,15.80
2023-05-24T18:07:44.380Z,15.80
2023-05-24T18:10:12.596Z,15.80
2023-05-24T18:12:40.360Z,15.80
2023-05-24T18:15:10.473Z,15.80
2023-05-24T18:17:37.634Z,15.80
2023-05-24T18:22:50.927Z,15.80
2023-05-24T18:25:18.411Z,15.70
2023-05-24T18:27:45.773Z,15.70
2023-05-24T18:30:15.124Z,15.70
2023-05-24T18:32:52.029Z,15.70
2023-05-24T18:35:29.026Z,15.70
2023-05-24T18:37:56.196Z,15.60
2023-05-24T18:40:26.190Z,15.50
2023-05-24T18:42:53.687Z,15.50
2023-05-24T18:45:22.748Z,15.40
2023-05-24T18:47:50.144Z,15.50
2023-05-24T18:50:23.304Z,15.50
2023-05-24T18:52:50.767Z,15.40
2023-05-24T18:55:18.154Z,15.40
2023-05-24T18:57:45.290Z,15.40
2023-05-24T19:00:13.771Z,15.30
2023-05-24T19:02:42.180Z,15.20
2023-05-24T19:05:10.139Z,15.20
2023-05-24T19:07:37.394Z,15.20
2023-05-24T19:10:05.738Z,15.20
2023-05-24T19:12:32.708Z,15.20
2023-05-24T19:15:00.111Z,15.10
2023-05-24T19:17:27.656Z,15.10
2023-05-24T19:19:55.999Z,15.00
2023-05-24T19:22:23.473Z,14.90
2023-05-24T19:24:50.585Z,14.90
2023-05-24T19:27:17.661Z,14.80
2023-05-24T19:29:45.079Z,14.80
2023-05-24T19:32:12.226Z,14.80
2023-05-24T19:34:42.659Z,14.70
2023-05-24T19:37:11.106Z,14.70
2023-05-24T19:39:38.553Z,14.70
2023-05-24T19:42:06.630Z,14.70
2023-05-24T19:44:34.144Z,14.60
2023-05-24T19:47:01.177Z,14.50
2023-05-24T19:49:28.687Z,14.60
2023-05-24T19:51:56.106Z,14.50
2023-05-24T19:54:24.437Z,14.50
2023-05-24T19:56:51.987Z,14.50
2023-05-24T19:59:19.103Z,14.30
2023-05-24T20:01:46.160Z,14.20
2023-05-24T20:04:13.712Z,14.30
2023-05-24T20:06:41.492Z,14.20
2023-05-24T20:09:09.033Z,14.20
2023-05-24T20:11:37.480Z,14.20
2023-05-24T20:14:04.866Z,14.10
2023-05-24T20:16:32.007Z,14.20
2023-05-24T20:18:59.067Z,14.10
2023-05-24T20:21:26.636Z,14.10
2023-05-24T20:23:57.757Z,14.10
2023-05-24T20:26:26.200Z,14.20
2023-05-24T20:28:54.685Z,14.10
2023-05-24T20:31:21.990Z,14.10
2023-05-24T20:33:51.965Z,14.10
2023-05-24T20:36:18.933Z,14.00
2023-05-24T20:38:46.290Z,13.90
2023-05-24T20:41:13.287Z,13.90
2023-05-24T20:43:40.361Z,13.90
2023-05-24T20:46:08.917Z,13.90
2023-05-24T20:48:35.964Z,13.90
2023-05-24T20:51:03.924Z,13.90
2023-05-24T20:53:30.977Z,14.00
2023-05-24T20:55:58.060Z,13.80
2023-05-24T20:58:25.733Z,13.80
2023-05-24T21:00:53.006Z,13.80
2023-05-24T21:03:21.401Z,13.70
2023-05-24T21:05:49.073Z,13.70
2023-05-24T21:08:16.710Z,13.60
2023-05-24T21:10:43.744Z,13.60
2023-05-24T21:13:11.247Z,13.60
2023-05-24T21:15:38.340Z,13.60
2023-05-24T21:18:05.361Z,13.40
2023-05-24T21:20:34.213Z,13.40
2023-05-24T21:23:01.869Z,13.40
2023-05-24T21:25:28.980Z,13.50
2023-05-24T21:27:56.656Z,13.40
2023-05-24T21:30:23.810Z,13.40
2023-05-24T21:32:50.975Z,13.40
2023-05-24T21:35:18.194Z,13.40
2023-05-24T21:37:46.546Z,13.40
2023-05-24T21:40:14.319Z,13.40
2023-05-24T21:42:41.344Z,13.40
2023-05-24T21:45:09.922Z,13.30
2023-05-24T21:47:36.966Z,13.40
2023-05-24T21:50:05.293Z,13.40
2023-05-24T21:52:32.909Z,13.40
2023-05-24T21:57:46.150Z,13.40
2023-05-24T22:00:15.463Z,13.30
2023-05-24T22:02:42.677Z,13.20
2023-05-24T22:05:10.036Z,13.20
2023-05-24T22:07:37.549Z,13.20
2023-05-24T22:10:08.004Z,13.20
2023-05-24T22:12:36.106Z,13.20
2023-05-24T22:15:03.324Z,13.20
2023-05-24T22:17:33.260Z,13.30
2023-05-24T22:20:01.834Z,13.10
2023-05-24T22:22:29.777Z,13.00
2023-05-24T22:24:57.468Z,13.00
2023-05-24T22:27:26.374Z,12.80
2023-05-24T22:29:53.446Z,12.70
2023-05-24T22:32:20.635Z,12.80
2023-05-24T22:34:48.182Z,12.90
2023-05-24T22:37:18.235Z,12.90
2023-05-24T22:39:45.823Z,12.80
2023-05-24T22:42:12.825Z,12.80
2023-05-24T22:44:41.805Z,12.80
2023-05-24T22:47:08.868Z,12.90
2023-05-24T22:49:36.362Z,12.90
2023-05-24T22:52:05.092Z,13.00
2023-05-24T22:54:32.573Z,12.80
2023-05-24T22:57:00.166Z,12.80
2023-05-24T22:59:27.157Z,12.80
2023-05-24T23:01:56.153Z,12.70
2023-05-24T23:04:23.252Z,12.80
2023-05-24T23:06:52.840Z,12.70
2023-05-24T23:09:42.003Z,12.60
2023-05-24T23:12:09.854Z,12.60
2023-05-24T23:14:38.563Z,12.70
2023-05-24T23:17:10.727Z,12.80
2023-05-24T23:19:42.249Z,12.80
2023-05-24T23:22:12.320Z,12.60
2023-05-24T23:24:39.533Z,12.60
2023-05-24T23:27:07.008Z,12.60
2023-05-24T23:29:34.569Z,12.60
2023-05-24T23:32:02.411Z,12.60
2023-05-24T23:34:33.789Z,12.70
2023-05-24T23:37:01.704Z,12.70
2023-05-24T23:39:29.304Z,12.50
2023-05-24T23:41:56.422Z,12.50
2023-05-24T23:44:24.251Z,12.40
2023-05-24T23:46:51.431Z,12.40
2023-05-24T23:49:18.984Z,12.30
2023-05-24T23:51:47.324Z,12.30
2023-05-24T23:54:19.648Z,12.30
2023-05-24T23:56:46.987Z,12.40
2023-05-24T23:59:14.652Z,12.40
